Time;durP1;ratioP1;P1;durP2;ratioP2;P2;SDS_P1;SDS_P2;PMS_P1;PMS_P2;Temp;Humidity;BMP_temperature;BMP_pressure;BME280_temperature;BME280_humidity;BME280_pressure;Samples;Min_cycle;Max_cycle;Signal;HPM_P1;HPM_P2
2021/03/24 00:00:46;;;;;;;1.75;0.13;;;31.20;85.30;;;;;;5070868;28;20895;-85
2021/03/24 00:03:14;;;;;;;2.22;0.10;;;31.40;87.90;;;;;;5070766;28;20386;-85
2021/03/24 00:05:48;;;;;;;1.90;0.13;;;31.50;79.80;;;;;;5069411;28;20503;-86
2021/03/24 00:08:17;;;;;;;2.00;0.20;;;30.90;79.10;;;;;;5079452;28;20743;-85
2021/03/24 00:10:44;;;;;;;1.77;0.15;;;30.90;86.10;;;;;;5089579;28;20902;-84
2021/03/24 00:13:12;;;;;;;1.90;0.40;;;31.10;87.60;;;;;;5089909;28;20372;-85
2021/03/24 00:15:39;;;;;;;0.60;0.10;;;31.20;80.30;;;;;;5089415;28;20499;-86
2021/03/24 00:18:08;;;;;;;1.48;0.20;;;31.10;76.30;;;;;;5090068;28;20859;-85
2021/03/24 00:20:38;;;;;;;0.30;0.10;;;31.10;80.00;;;;;;5089788;28;20422;-85
2021/03/24 00:23:06;;;;;;;1.40;0.17;;;31.10;80.40;;;;;;5087618;28;20373;-86
2021/03/24 00:25:34;;;;;;;0.10;0.08;;;31.20;81.70;;;;;;5069955;28;20389;-85
2021/03/24 00:28:01;;;;;;;1.35;0.10;;;30.70;81.30;;;;;;5070658;28;20386;-86
2021/03/24 00:30:32;;;;;;;1.50;0.10;;;30.60;82.80;;;;;;5069036;28;20968;-85
2021/03/24 00:32:59;;;;;;;1.48;0.20;;;30.60;83.80;;;;;;5070639;28;20389;-84
2021/03/24 00:35:27;;;;;;;0.30;0.20;;;30.70;83.40;;;;;;5068172;28;20381;-86
2021/03/24 00:37:54;;;;;;;3.25;0.10;;;30.90;77.90;;;;;;5069634;28;20381;-84
2021/03/24 00:40:25;;;;;;;0.28;0.15;;;30.80;79.20;;;;;;5069604;28;20408;-86
2021/03/24 00:42:52;;;;;;;0.20;0.10;;;31.00;84.00;;;;;;5069002;28;20378;-83
2021/03/24 00:45:20;;;;;;;2.13;0.40;;;30.80;76.10;;;;;;5068951;28;20386;-87
2021/03/24 00:47:47;;;;;;;1.60;0.10;;;31.00;76.20;;;;;;5069152;28;20531;-86
2021/03/24 00:50:18;;;;;;;1.50;0.10;;;30.80;78.80;;;;;;5068775;28;20402;-86
2021/03/24 00:52:45;;;;;;;0.50;0.10;;;30.40;79.00;;;;;;5068471;28;20418;-86
2021/03/24 00:55:13;;;;;;;2.90;0.20;;;30.70;78.60;;;;;;5067758;28;20452;-86
2021/03/24 00:57:40;;;;;;;1.58;0.20;;;30.70;80.00;;;;;;5068524;28;20399;-87
2021/03/24 01:00:13;;;;;;;0.60;0.10;;;30.20;76.30;;;;;;5068850;28;20738;-86
2021/03/24 01:02:40;;;;;;;3.65;0.10;;;29.80;79.40;;;;;;5069110;28;20408;-86
2021/03/24 01:05:08;;;;;;;1.38;0.20;;;30.10;81.70;;;;;;5084275;28;20507;-88
2021/03/24 01:07:35;;;;;;;0.60;0.10;;;29.90;75.70;;;;;;5089421;28;20420;-88
2021/03/24 01:10:05;;;;;;;3.15;0.30;;;29.70;77.90;;;;;;5088995;28;20408;-87
2021/03/24 01:12:32;;;;;;;1.58;0.13;;;29.50;78.70;;;;;;5089423;28;20510;-87
2021/03/24 01:14:59;;;;;;;2.33;0.20;;;28.90;80.30;;;;;;5083354;28;20424;-86
2021/03/24 01:17:26;;;;;;;0.73;0.10;;;28.30;83.60;;;;;;5069028;28;20424;-86
2021/03/24 01:19:53;;;;;;;2.10;0.10;;;27.90;85.70;;;;;;5069034;28;20378;-87
2021/03/24 01:22:20;;;;;;;1.55;0.10;;;27.70;86.50;;;;;;5067469;28;20409;-88
2021/03/24 01:24:47;;;;;;;1.58;0.13;;;27.60;91.70;;;;;;5068065;28;20470;-86
2021/03/24 01:27:14;;;;;;;0.45;0.17;;;27.40;86.30;;;;;;5065202;28;20382;-88
2021/03/24 01:29:41;;;;;;;0.40;0.15;;;27.30;92.20;;;;;;5068717;28;20408;-88
2021/03/24 01:32:08;;;;;;;0.10;0.03;;;27.30;90.70;;;;;;5069780;28;20780;-84
2021/03/24 01:34:35;;;;;;;0.55;0.10;;;27.10;89.90;;;;;;5067603;28;20777;-82
2021/03/24 01:37:02;;;;;;;0.50;0.10;;;27.00;90.70;;;;;;5067789;28;20388;-83
2021/03/24 01:39:29;;;;;;;0.13;0.10;;;26.90;90.00;;;;;;5068380;28;20409;-82
2021/03/24 01:41:56;;;;;;;5.20;0.60;;;26.90;92.50;;;;;;5068695;28;20389;-83
2021/03/24 01:44:23;;;;;;;0.30;0.15;;;27.10;94.60;;;;;;5068769;28;20374;-83
2021/03/24 01:46:50;;;;;;;0.98;0.17;;;27.20;92.90;;;;;;5071186;28;20381;-83
2021/03/24 01:49:38;;;;;;;0.70;0.10;;;27.00;89.10;;;;;;5071787;28;20501;-83
2021/03/24 01:52:09;;;;;;;0.70;0.10;;;26.70;91.40;;;;;;5072169;28;20440;-83
2021/03/24 01:54:42;;;;;;;0.90;0.05;;;26.30;89.90;;;;;;5072020;28;20865;-85
2021/03/24 01:57:20;;;;;;;0.00;0.00;;;25.90;88.70;;;;;;5072186;28;20385;-86
2021/03/24 01:59:51;;;;;;;0.40;0.20;;;25.90;86.80;;;;;;5073213;28;20416;-88
2021/03/24 02:02:34;;;;;;;1.52;0.20;;;25.70;91.10;;;;;;5053007;28;20408;-88
2021/03/24 02:05:01;;;;;;;0.63;0.15;;;25.60;91.00;;;;;;5071121;28;20381;-87
2021/03/24 02:08:23;;;;;;;0.20;0.20;;;25.70;90.60;;;;;;5072406;28;20458;-88
2021/03/24 02:11:18;;;;;;;0.30;0.10;;;25.80;90.20;;;;;;5048032;28;20394;-86
2021/03/24 02:13:57;;;;;;;0.50;0.17;;;26.00;93.50;;;;;;5072024;28;20370;-86
2021/03/24 02:16:34;;;;;;;0.88;0.20;;;26.20;91.50;;;;;;5072072;28;20386;-86
2021/03/24 02:19:10;;;;;;;1.90;0.20;;;26.20;87.30;;;;;;5059935;28;20545;-85
2021/03/24 02:21:39;;;;;;;2.47;0.30;;;26.30;90.30;;;;;;5052177;28;20437;-85
2021/03/24 02:24:19;;;;;;;0.10;0.10;;;26.30;88.60;;;;;;5071747;28;20392;-86
2021/03/24 02:27:04;;;;;;;1.07;0.10;;;26.20;90.30;;;;;;5071197;28;20413;-86
2021/03/24 02:29:35;;;;;;;1.50;0.20;;;26.10;89.20;;;;;;5072110;28;20488;-86
2021/03/24 02:32:05;;;;;;;0.10;0.10;;;26.10;87.60;;;;;;5072459;28;20385;-86
2021/03/24 02:34:34;;;;;;;1.00;0.05;;;26.20;90.30;;;;;;5071799;28;20805;-86
2021/03/24 02:37:03;;;;;;;0.40;0.30;;;26.30;90.20;;;;;;5071352;28;20906;-85
2021/03/24 02:39:33;;;;;;;2.50;0.10;;;26.40;90.30;;;;;;5071607;28;20386;-85
2021/03/24 02:42:04;;;;;;;0.10;0.10;;;26.50;86.20;;;;;;5071419;28;20377;-83
2021/03/24 02:44:33;;;;;;;0.30;0.10;;;26.60;90.60;;;;;;5072121;28;20377;-86
2021/03/24 02:47:02;;;;;;;1.77;0.10;;;26.60;87.90;;;;;;5068544;28;20398;-86
2021/03/24 02:49:34;;;;;;;0.50;0.20;;;26.40;84.90;;;;;;5071172;28;20471;-85
2021/03/24 02:52:02;;;;;;;0.10;0.10;;;26.20;90.00;;;;;;5069572;28;20386;-85
2021/03/24 02:54:33;;;;;;;1.20;0.20;;;26.10;89.10;;;;;;5070030;28;20476;-86
2021/03/24 02:57:01;;;;;;;0.20;0.20;;;26.20;90.80;;;;;;5082281;28;20377;-84
2021/03/24 02:59:29;;;;;;;0.30;0.20;;;26.10;84.70;;;;;;5075076;28;20461;-86
2021/03/24 03:02:05;;;;;;;0.65;0.20;;;26.00;89.70;;;;;;5071377;28;20374;-87
2021/03/24 03:05:01;;;;;;;1.20;0.30;;;25.90;90.90;;;;;;5070419;28;20526;-85
2021/03/24 03:07:35;;;;;;;1.10;0.20;;;26.00;83.60;;;;;;5044906;28;20475;-85
2021/03/24 03:10:10;;;;;;;0.20;0.20;;;26.10;90.60;;;;;;5051029;28;20485;-85
2021/03/24 03:12:49;;;;;;;3.20;0.30;;;26.10;90.60;;;;;;5050999;28;20468;-85
2021/03/24 03:15:25;;;;;;;0.90;0.10;;;26.30;89.40;;;;;;5054691;28;20389;-85
2021/03/24 03:17:58;;;;;;;3.28;0.20;;;26.30;87.90;;;;;;5070774;28;20398;-86
2021/03/24 03:20:33;;;;;;;1.48;0.10;;;26.60;83.40;;;;;;5070746;28;20374;-86
2021/03/24 03:23:06;;;;;;;0.68;0.20;;;26.60;85.40;;;;;;5070506;28;20386;-87
2021/03/24 03:25:38;;;;;;;0.73;0.20;;;26.60;84.20;;;;;;5070860;28;20401;-87
2021/03/24 03:28:13;;;;;;;2.60;0.20;;;26.50;87.00;;;;;;5068546;28;20769;-86
2021/03/24 03:30:42;;;;;;;4.00;0.40;;;26.50;84.50;;;;;;5070064;28;20433;-84
2021/03/24 03:33:12;;;;;;;1.30;0.20;;;26.60;84.00;;;;;;5072372;28;20440;-85
2021/03/24 03:35:40;;;;;;;0.50;0.50;;;26.60;88.30;;;;;;5071444;28;20374;-84
2021/03/24 03:38:11;;;;;;;2.03;0.20;;;26.60;80.50;;;;;;5070786;28;20424;-85
2021/03/24 03:40:39;;;;;;;1.55;0.40;;;26.60;85.30;;;;;;5070719;28;20390;-85
2021/03/24 03:43:10;;;;;;;0.70;0.22;;;26.40;82.70;;;;;;5082261;28;20535;-88
2021/03/24 03:45:42;;;;;;;2.03;0.30;;;26.10;85.40;;;;;;5071341;28;20401;-86
2021/03/24 03:48:12;;;;;;;1.47;0.23;;;26.20;84.20;;;;;;5070990;28;20932;-86
2021/03/24 03:50:40;;;;;;;0.33;0.20;;;26.10;85.50;;;;;;5070682;28;20393;-86
2021/03/24 03:53:34;;;;;;;0.10;0.10;;;26.20;86.70;;;;;;5071526;28;20374;-86
2021/03/24 03:56:19;;;;;;;0.30;0.20;;;26.40;87.50;;;;;;5070297;28;20392;-85
2021/03/24 03:58:48;;;;;;;0.22;0.22;;;26.40;82.20;;;;;;5070257;28;20400;-87
2021/03/24 04:01:21;;;;;;;0.50;0.30;;;26.30;79.90;;;;;;5071410;28;20374;-86
2021/03/24 04:03:59;;;;;;;1.67;0.20;;;26.20;84.70;;;;;;5071826;28;20400;-85
2021/03/24 04:06:33;;;;;;;0.93;0.17;;;26.20;85.30;;;;;;5074438;28;20754;-86
2021/03/24 04:09:01;;;;;;;0.90;0.40;;;26.20;87.30;;;;;;5077020;28;20406;-89
2021/03/24 04:11:32;;;;;;;0.25;0.25;;;26.30;86.50;;;;;;5070572;28;20426;-87
2021/03/24 04:14:03;;;;;;;1.90;0.30;;;26.50;80.10;;;;;;5070144;28;20790;-87
2021/03/24 04:16:30;;;;;;;0.60;0.28;;;26.60;83.20;;;;;;5072147;28;20861;-88
2021/03/24 04:19:03;;;;;;;0.50;0.20;;;26.50;82.90;;;;;;5071822;28;20366;-88
2021/03/24 04:21:37;;;;;;;1.35;0.30;;;26.50;82.60;;;;;;5072590;28;21040;-87
2021/03/24 04:24:18;;;;;;;1.70;0.30;;;26.50;85.70;;;;;;5090026;28;20387;-84
2021/03/24 04:26:48;;;;;;;1.33;0.30;;;26.50;81.60;;;;;;5089854;28;20368;-88
2021/03/24 04:29:40;;;;;;;1.95;0.30;;;26.30;81.00;;;;;;5089724;28;20443;-86
2021/03/24 04:32:08;;;;;;;1.05;0.20;;;26.30;83.20;;;;;;5085561;28;20895;-84
2021/03/24 04:34:36;;;;;;;0.60;0.27;;;26.20;80.60;;;;;;5070192;28;20861;-85
2021/03/24 04:37:27;;;;;;;0.90;0.30;;;26.30;81.50;;;;;;5058427;28;20410;-85
2021/03/24 04:40:12;;;;;;;0.65;0.30;;;26.30;80.60;;;;;;5021114;28;20466;-86
2021/03/24 04:42:48;;;;;;;0.80;0.20;;;26.10;80.40;;;;;;5061847;28;20386;-83
2021/03/24 04:45:48;;;;;;;2.08;0.40;;;25.90;79.50;;;;;;5055283;28;20386;-85
2021/03/24 04:48:18;;;;;;;0.20;0.20;;;26.00;80.60;;;;;;5055948;28;20468;-84
2021/03/24 04:51:08;;;;;;;0.73;0.30;;;26.20;80.90;;;;;;5048941;28;20885;-86
2021/03/24 04:53:47;;;;;;;0.45;0.20;;;26.30;79.20;;;;;;5056167;28;20385;-86
2021/03/24 04:56:18;;;;;;;2.30;0.30;;;26.30;80.10;;;;;;5069095;28;20390;-86
2021/03/24 04:58:55;;;;;;;1.30;0.25;;;26.30;78.90;;;;;;5067844;28;21298;-84
2021/03/24 05:01:22;;;;;;;1.40;0.20;;;26.40;78.50;;;;;;5068139;28;20415;-84
2021/03/24 05:03:53;;;;;;;1.70;0.20;;;26.30;76.40;;;;;;5058385;28;20467;-84
2021/03/24 05:06:48;;;;;;;1.20;0.28;;;26.10;78.70;;;;;;5031390;28;20396;-84
2021/03/24 05:09:16;;;;;;;2.30;0.40;;;26.00;80.10;;;;;;5051215;28;20484;-82
2021/03/24 05:11:45;;;;;;;0.20;0.17;;;26.00;78.40;;;;;;5049440;28;20455;-84
2021/03/24 05:14:15;;;;;;;1.50;0.20;;;26.00;78.70;;;;;;5050585;28;20435;-82
2021/03/24 05:16:46;;;;;;;0.32;0.20;;;26.00;79.50;;;;;;5050091;28;20396;-83
2021/03/24 05:19:25;;;;;;;0.70;0.28;;;25.90;78.90;;;;;;5049092;28;20380;-84
2021/03/24 05:21:59;;;;;;;1.40;0.40;;;26.00;78.70;;;;;;5034035;28;20418;-84
2021/03/24 05:24:33;;;;;;;1.10;0.30;;;26.00;76.00;;;;;;5053010;28;20375;-81
2021/03/24 05:27:32;;;;;;;1.45;0.30;;;26.00;78.10;;;;;;5049905;28;20896;-85
2021/03/24 05:30:11;;;;;;;0.93;0.20;;;25.80;76.80;;;;;;5053176;28;20427;-84
2021/03/24 05:32:45;;;;;;;0.20;0.20;;;25.80;77.30;;;;;;5061337;28;20397;-84
2021/03/24 05:35:40;;;;;;;2.30;0.50;;;25.90;78.30;;;;;;5061978;28;20428;-85
2021/03/24 05:38:17;;;;;;;0.25;0.15;;;25.90;78.10;;;;;;5052869;28;20395;-84
2021/03/24 05:41:09;;;;;;;0.82;0.20;;;25.80;77.60;;;;;;5053368;28;20371;-84
2021/03/24 05:43:54;;;;;;;1.50;0.28;;;25.80;76.60;;;;;;5052972;28;20379;-85
2021/03/24 05:46:43;;;;;;;0.40;0.32;;;25.70;77.60;;;;;;5052814;28;20376;-85
2021/03/24 05:49:33;;;;;;;0.80;0.20;;;25.70;78.80;;;;;;5052503;28;20732;-86
2021/03/24 05:52:17;;;;;;;0.22;0.20;;;25.70;79.50;;;;;;5051189;28;20440;-86
2021/03/24 05:54:57;;;;;;;0.47;0.20;;;25.80;78.30;;;;;;5052036;28;20380;-86
2021/03/24 05:58:28;;;;;;;1.30;0.30;;;25.70;78.60;;;;;;5053886;28;20367;-85
2021/03/24 06:01:07;;;;;;;0.28;0.10;;;25.70;79.60;;;;;;4971736;28;20390;-86
2021/03/24 06:04:07;;;;;;;2.20;0.40;;;25.60;77.70;;;;;;5043646;28;20493;-84
2021/03/24 06:06:55;;;;;;;5.50;0.40;;;25.60;77.10;;;;;;5052555;28;20387;-83
2021/03/24 06:09:53;;;;;;;0.90;0.30;;;25.60;78.80;;;;;;5050789;28;20434;-85
2021/03/24 06:12:19;;;;;;;0.90;0.40;;;25.60;78.80;;;;;;5044039;28;20396;-85
2021/03/24 06:14:56;;;;;;;1.02;0.50;;;25.60;78.20;;;;;;5052688;28;20399;-84
2021/03/24 06:17:47;;;;;;;0.68;0.30;;;25.50;79.90;;;;;;5051043;28;20388;-85
2021/03/24 06:20:39;;;;;;;2.00;0.50;;;25.50;81.10;;;;;;5052582;28;20379;-85
2021/03/24 06:23:41;;;;;;;0.60;0.40;;;25.50;77.40;;;;;;5052316;28;20372;-85
2021/03/24 06:26:59;;;;;;;0.60;0.30;;;25.50;78.90;;;;;;5039953;28;20407;-88
2021/03/24 06:30:07;;;;;;;0.60;0.30;;;25.40;79.10;;;;;;4965123;28;20422;-84
2021/03/24 06:33:07;;;;;;;2.30;0.25;;;25.40;80.50;;;;;;4971483;28;20935;-85
2021/03/24 06:35:40;;;;;;;0.70;0.20;;;25.30;80.60;;;;;;5041850;28;20380;-85
2021/03/24 06:38:12;;;;;;;1.60;0.23;;;25.30;80.20;;;;;;5076067;28;20445;-85
2021/03/24 06:41:01;;;;;;;1.80;0.25;;;25.20;79.10;;;;;;5088206;28;20392;-85
2021/03/24 06:43:52;;;;;;;1.23;0.20;;;25.20;81.40;;;;;;5064614;28;21575;-84
2021/03/24 06:46:23;;;;;;;1.67;0.30;;;25.10;80.80;;;;;;5081360;28;20854;-85
2021/03/24 06:49:08;;;;;;;0.20;0.20;;;25.00;82.30;;;;;;5091538;28;20389;-85
2021/03/24 06:52:13;;;;;;;0.40;0.22;;;24.90;82.30;;;;;;5090924;28;20387;-85
2021/03/24 06:55:11;;;;;;;0.50;0.20;;;24.90;80.60;;;;;;5091559;28;20374;-85
2021/03/24 06:58:21;;;;;;;0.20;0.10;;;24.90;82.50;;;;;;5089818;28;20381;-84
2021/03/24 07:00:54;;;;;;;4.20;0.30;;;24.80;82.40;;;;;;5090873;28;20465;-85
2021/03/24 07:03:48;;;;;;;1.73;0.30;;;24.70;83.00;;;;;;5091826;28;20401;-83
2021/03/24 07:06:22;;;;;;;1.30;0.20;;;24.70;83.10;;;;;;5091265;28;20456;-84
2021/03/24 07:08:52;;;;;;;1.40;0.30;;;24.60;83.60;;;;;;5091068;28;20846;-85
2021/03/24 07:11:34;;;;;;;2.60;0.30;;;24.50;85.90;;;;;;5091444;28;20377;-84
2021/03/24 07:14:14;;;;;;;2.40;0.20;;;24.40;85.90;;;;;;5091001;28;20352;-84
2021/03/24 07:17:09;;;;;;;1.27;0.30;;;24.30;85.80;;;;;;5084381;28;20390;-85
2021/03/24 07:20:14;;;;;;;1.20;0.30;;;24.30;86.70;;;;;;5069363;28;20466;-85
2021/03/24 07:22:59;;;;;;;0.70;0.30;;;24.20;87.30;;;;;;5028173;28;20381;-85
2021/03/24 07:25:45;;;;;;;2.10;0.30;;;24.10;87.20;;;;;;5067847;28;20378;-85
2021/03/24 07:28:41;;;;;;;2.70;0.30;;;24.00;87.50;;;;;;5081656;28;20511;-85
2021/03/24 07:31:29;;;;;;;0.45;0.38;;;24.00;88.40;;;;;;5073113;28;20557;-83
2021/03/24 07:34:06;;;;;;;0.40;0.30;;;23.90;87.80;;;;;;5063238;28;20471;-85
2021/03/24 07:37:19;;;;;;;1.27;0.30;;;23.80;89.60;;;;;;5071990;28;20954;-83
2021/03/24 07:40:06;;;;;;;3.08;0.40;;;23.70;89.90;;;;;;5068949;28;20394;-83
2021/03/24 07:42:45;;;;;;;2.27;0.60;;;23.60;89.20;;;;;;5061177;28;20841;-86
2021/03/24 07:45:23;;;;;;;0.63;0.30;;;23.60;90.00;;;;;;5068300;28;20455;-84
2021/03/24 07:48:21;;;;;;;0.57;0.45;;;23.50;90.20;;;;;;5070001;28;20382;-85
2021/03/24 07:51:14;;;;;;;2.15;0.30;;;23.40;90.80;;;;;;5045529;28;20495;-84
2021/03/24 07:54:19;;;;;;;0.20;0.20;;;23.30;91.00;;;;;;5073418;28;20400;-85
2021/03/24 07:57:13;;;;;;;1.65;0.30;;;23.20;91.10;;;;;;5073764;28;20524;-86
2021/03/24 07:59:49;;;;;;;1.45;0.40;;;23.10;91.00;;;;;;5058556;28;20407;-85
2021/03/24 08:02:25;;;;;;;2.50;0.50;;;23.00;91.40;;;;;;5071957;28;20399;-84
2021/03/24 08:05:29;;;;;;;2.30;0.45;;;23.00;91.60;;;;;;5086933;28;20377;-84
2021/03/24 08:08:12;;;;;;;1.25;0.35;;;22.90;92.00;;;;;;5080519;28;20504;-83
2021/03/24 08:11:23;;;;;;;0.68;0.50;;;22.80;92.30;;;;;;5064024;28;20402;-85
2021/03/24 08:13:50;;;;;;;0.30;0.30;;;22.80;92.60;;;;;;5063809;28;20405;-80
2021/03/24 08:16:42;;;;;;;1.10;0.40;;;22.70;93.10;;;;;;5066061;28;20390;-85
2021/03/24 08:19:30;;;;;;;1.20;0.40;;;22.60;93.70;;;;;;5065380;28;20914;-85
2021/03/24 08:22:03;;;;;;;0.70;0.40;;;22.60;94.10;;;;;;5067489;28;20492;-85
2021/03/24 08:24:56;;;;;;;2.17;0.60;;;22.50;93.90;;;;;;5064828;28;20401;-82
2021/03/24 08:27:33;;;;;;;1.83;0.50;;;22.60;94.10;;;;;;5065325;28;20382;-84
2021/03/24 08:30:18;;;;;;;2.38;0.55;;;22.50;93.90;;;;;;5063725;28;20437;-83
2021/03/24 08:33:07;;;;;;;1.80;0.50;;;22.50;94.40;;;;;;5063764;28;20440;-82
2021/03/24 08:36:11;;;;;;;0.80;0.40;;;22.40;94.80;;;;;;5059255;28;20390;-83
2021/03/24 08:39:04;;;;;;;3.30;0.50;;;22.40;95.00;;;;;;5066928;28;20433;-83
2021/03/24 08:41:49;;;;;;;1.00;0.50;;;22.30;95.20;;;;;;5064446;28;20438;-84
2021/03/24 08:44:53;;;;;;;1.00;0.40;;;22.30;95.40;;;;;;5064452;28;20931;-84
2021/03/24 08:47:33;;;;;;;0.70;0.40;;;22.20;96.50;;;;;;5075968;28;20382;-84
2021/03/24 08:50:02;;;;;;;5.65;0.77;;;22.10;96.30;;;;;;5071332;28;20405;-85
2021/03/24 08:52:28;;;;;;;2.30;0.40;;;22.00;96.10;;;;;;5073337;28;20750;-83
2021/03/24 08:55:34;;;;;;;2.75;0.30;;;22.00;97.90;;;;;;5089057;28;20461;-83
2021/03/24 08:58:10;;;;;;;1.70;0.50;;;22.00;97.80;;;;;;5028066;28;20433;-84
2021/03/24 09:00:39;;;;;;;3.05;0.40;;;21.90;97.70;;;;;;5026175;28;20410;-85
2021/03/24 09:03:28;;;;;;;1.13;0.45;;;21.80;98.70;;;;;;5051183;28;20401;-84
2021/03/24 09:06:24;;;;;;;1.05;0.50;;;21.80;98.30;;;;;;5068315;28;20394;-83
2021/03/24 09:09:20;;;;;;;0.80;0.55;;;21.70;99.20;;;;;;5059184;28;20425;-81
2021/03/24 09:12:07;;;;;;;1.10;0.40;;;21.70;99.10;;;;;;5073852;28;20488;-80
2021/03/24 09:14:59;;;;;;;1.38;0.50;;;21.70;99.50;;;;;;5068543;28;20386;-84
2021/03/24 09:17:48;;;;;;;0.63;0.57;;;21.60;99.20;;;;;;5071474;28;20390;-83
2021/03/24 09:20:43;;;;;;;1.83;0.70;;;21.60;99.70;;;;;;5069113;28;20520;-83
2021/03/24 09:23:35;;;;;;;2.58;0.60;;;21.60;99.90;;;;;;5068309;28;20380;-81
2021/03/24 09:26:23;;;;;;;1.40;0.50;;;21.50;99.90;;;;;;5069009;28;20386;-83
2021/03/24 09:29:07;;;;;;;2.95;0.60;;;21.50;99.90;;;;;;5046126;28;20897;-82
2021/03/24 09:32:08;;;;;;;0.75;0.60;;;21.40;99.90;;;;;;5050052;28;20463;-82
2021/03/24 09:34:53;;;;;;;2.08;0.50;;;21.40;99.90;;;;;;5098623;27;20397;-83
2021/03/24 09:37:35;;;;;;;2.67;0.60;;;21.40;99.90;;;;;;5064276;28;20921;-82
2021/03/24 09:40:08;;;;;;;2.22;0.50;;;21.40;99.90;;;;;;5057723;28;20398;-83
2021/03/24 09:42:51;;;;;;;1.60;0.60;;;21.30;99.90;;;;;;5040409;28;21030;-83
2021/03/24 09:45:26;;;;;;;1.20;0.60;;;21.30;99.90;;;;;;5027512;28;20393;-83
2021/03/24 09:48:02;;;;;;;1.58;0.50;;;21.40;99.40;;;;;;5042428;28;20486;-83
2021/03/24 09:50:35;;;;;;;1.15;0.60;;;21.30;98.70;;;;;;5046667;28;20427;-82
2021/03/24 09:53:30;;;;;;;1.60;0.60;;;21.30;98.40;;;;;;5045691;28;20394;-82
2021/03/24 09:55:57;;;;;;;2.88;0.60;;;21.40;98.40;;;;;;5045113;28;20442;-82
2021/03/24 09:58:27;;;;;;;2.13;0.80;;;21.30;98.40;;;;;;5027288;28;20385;-83
2021/03/24 10:01:12;;;;;;;4.32;0.70;;;21.30;97.80;;;;;;5033423;28;20396;-82
2021/03/24 10:04:00;;;;;;;1.77;0.70;;;21.30;97.80;;;;;;5026882;28;20431;-79
2021/03/24 10:06:45;;;;;;;1.48;0.90;;;21.20;97.40;;;;;;5034467;28;20388;-83
2021/03/24 10:09:19;;;;;;;1.60;0.73;;;21.20;97.00;;;;;;5031104;28;20432;-82
2021/03/24 10:12:22;;;;;;;3.35;0.85;;;21.20;96.80;;;;;;5043557;28;20384;-83
2021/03/24 10:15:00;;;;;;;1.80;0.80;;;21.20;97.20;;;;;;5029164;28;20387;-83
2021/03/24 10:17:30;;;;;;;2.80;0.70;;;21.10;97.90;;;;;;5040873;28;20491;-82
2021/03/24 10:20:24;;;;;;;3.25;0.73;;;21.10;97.00;;;;;;5030966;28;20437;-82
2021/03/24 10:23:16;;;;;;;2.75;0.75;;;21.10;97.20;;;;;;5029146;28;20840;-81
2021/03/24 10:25:47;;;;;;;3.28;0.95;;;21.10;97.50;;;;;;5018660;28;21039;-85
2021/03/24 10:28:38;;;;;;;6.85;0.93;;;21.00;97.70;;;;;;5057666;28;20392;-82
2021/03/24 10:31:31;;;;;;;0.70;0.70;;;20.90;98.30;;;;;;5030967;28;20903;-82
2021/03/24 10:34:06;;;;;;;3.55;0.80;;;20.90;98.00;;;;;;5051072;28;20399;-82
2021/03/24 10:36:41;;;;;;;2.58;0.90;;;20.90;98.60;;;;;;5059962;28;20461;-83
2021/03/24 10:39:20;;;;;;;4.65;0.82;;;20.90;98.40;;;;;;5066555;28;20390;-82
2021/03/24 10:42:25;;;;;;;3.17;0.80;;;20.80;98.80;;;;;;5072156;28;20414;-82
2021/03/24 10:45:20;;;;;;;3.00;0.82;;;20.80;98.90;;;;;;5063439;28;21195;-84
2021/03/24 10:48:16;;;;;;;2.08;0.95;;;20.80;99.10;;;;;;5070888;28;20441;-83
2021/03/24 10:51:11;;;;;;;2.53;0.98;;;20.70;99.40;;;;;;5058490;28;20425;-83
2021/03/24 10:53:40;;;;;;;0.93;0.90;;;20.70;98.90;;;;;;5072212;28;20390;-85
2021/03/24 10:56:40;;;;;;;4.00;0.75;;;20.70;98.90;;;;;;5089995;28;20732;-84
2021/03/24 10:59:28;;;;;;;10.43;1.10;;;20.70;99.20;;;;;;5069746;28;20424;-84
2021/03/24 11:01:55;;;;;;;3.03;1.00;;;20.70;99.20;;;;;;5070521;28;20417;-83
2021/03/24 11:04:30;;;;;;;4.80;1.05;;;20.60;99.60;;;;;;5069859;28;20386;-83
2021/03/24 11:07:04;;;;;;;1.20;0.80;;;20.60;99.70;;;;;;5077180;28;20473;-83
2021/03/24 11:09:49;;;;;;;3.35;0.80;;;20.50;99.90;;;;;;5080027;28;20422;-83
2021/03/24 11:12:39;;;;;;;3.25;0.80;;;20.50;99.90;;;;;;5069481;28;20390;-83
2021/03/24 11:15:14;;;;;;;2.00;1.10;;;20.40;99.90;;;;;;5066929;28;20421;-83
2021/03/24 11:17:44;;;;;;;6.70;1.20;;;20.40;99.90;;;;;;5069847;28;20389;-86
2021/03/24 11:20:15;;;;;;;3.10;1.08;;;20.40;99.90;;;;;;5070068;28;20417;-82
2021/03/24 11:22:59;;;;;;;2.50;0.80;;;20.40;99.90;;;;;;5071553;28;20362;-83
2021/03/24 11:25:31;;;;;;;2.65;0.98;;;20.40;99.90;;;;;;5052740;28;20370;-82
2021/03/24 11:28:26;;;;;;;2.58;1.38;;;20.30;99.90;;;;;;5070224;28;20421;-84
2021/03/24 11:31:17;;;;;;;0.95;0.88;;;20.30;99.90;;;;;;5071214;28;20717;-83
2021/03/24 11:34:03;;;;;;;2.00;0.73;;;20.30;99.90;;;;;;5066479;28;20394;-82
2021/03/24 11:36:56;;;;;;;1.67;0.75;;;20.20;99.90;;;;;;5072402;28;20413;-83
2021/03/24 11:39:32;;;;;;;1.33;0.90;;;20.20;99.90;;;;;;5034362;28;20433;-82
2021/03/24 11:42:33;;;;;;;3.03;0.93;;;20.10;99.90;;;;;;5085638;28;20388;-83
2021/03/24 11:45:00;;;;;;;1.27;1.10;;;20.10;99.60;;;;;;5056661;28;20398;-83
2021/03/24 11:48:07;;;;;;;1.75;1.02;;;20.00;99.50;;;;;;5075655;28;20485;-82
2021/03/24 11:50:52;;;;;;;3.35;0.95;;;20.00;99.40;;;;;;5063767;28;20753;-84
2021/03/24 11:53:37;;;;;;;3.50;1.20;;;20.00;99.70;;;;;;5083185;28;20832;-83
2021/03/24 11:56:37;;;;;;;2.47;0.90;;;19.90;99.70;;;;;;5073848;28;20390;-82
2021/03/24 11:59:10;;;;;;;2.67;0.80;;;19.80;98.80;;;;;;5068987;28;20384;-83
2021/03/24 12:01:57;;;;;;;1.02;0.93;;;19.80;98.50;;;;;;5071786;28;20880;-83
2021/03/24 12:04:38;;;;;;;2.35;1.00;;;19.80;98.50;;;;;;5081973;28;20395;-83
2021/03/24 12:07:23;;;;;;;3.37;0.97;;;19.80;98.20;;;;;;5074792;28;20403;-83
2021/03/24 12:10:13;;;;;;;5.38;0.90;;;19.80;98.90;;;;;;5090005;28;20479;-84
2021/03/24 12:12:40;;;;;;;1.88;0.75;;;19.80;98.10;;;;;;5088205;28;20396;-84
2021/03/24 12:15:14;;;;;;;3.20;1.10;;;19.70;98.30;;;;;;5080687;28;20470;-82
2021/03/24 12:17:41;;;;;;;2.37;0.90;;;19.70;98.50;;;;;;5076194;28;20372;-83
2021/03/24 12:20:14;;;;;;;1.70;1.00;;;19.60;99.00;;;;;;5087562;28;20384;-84
2021/03/24 12:22:54;;;;;;;3.63;1.00;;;19.50;98.80;;;;;;5087332;28;20946;-82
2021/03/24 12:25:30;;;;;;;1.00;0.82;;;19.50;98.60;;;;;;5079578;28;20382;-82
2021/03/24 12:28:06;;;;;;;3.00;1.00;;;19.50;99.00;;;;;;5070926;28;20387;-83
2021/03/24 12:30:47;;;;;;;2.30;0.70;;;19.40;99.30;;;;;;5088448;28;20403;-82
2021/03/24 12:33:15;;;;;;;1.10;0.90;;;19.40;99.20;;;;;;5082850;28;20403;-83
2021/03/24 12:35:47;;;;;;;1.85;0.77;;;19.40;99.70;;;;;;5068703;28;20409;-83
2021/03/24 12:38:17;;;;;;;1.70;0.90;;;19.30;99.30;;;;;;5077462;28;20398;-82
2021/03/24 12:40:57;;;;;;;2.00;0.93;;;19.30;99.40;;;;;;5085917;28;20381;-80
2021/03/24 12:43:34;;;;;;;1.83;0.80;;;19.30;99.60;;;;;;5086436;28;20400;-81
2021/03/24 12:46:22;;;;;;;2.22;1.10;;;19.20;99.90;;;;;;5076172;28;20495;-82
2021/03/24 12:48:56;;;;;;;1.45;0.85;;;19.20;99.70;;;;;;5068581;28;20389;-84
2021/03/24 12:51:36;;;;;;;1.15;0.80;;;19.20;99.90;;;;;;5068650;28;20396;-83
2021/03/24 12:54:10;;;;;;;3.10;0.80;;;19.20;99.90;;;;;;5070408;28;20433;-81
2021/03/24 12:56:37;;;;;;;1.77;0.83;;;19.10;99.80;;;;;;5086405;28;20383;-84
2021/03/24 12:59:30;;;;;;;1.60;0.70;;;19.10;99.90;;;;;;5083008;28;20393;-82
2021/03/24 13:02:20;;;;;;;3.13;0.90;;;19.00;99.90;;;;;;5081091;28;20394;-84
2021/03/24 13:05:09;;;;;;;1.00;0.80;;;18.90;99.90;;;;;;5069982;28;20850;-82
2021/03/24 13:07:46;;;;;;;1.23;0.80;;;18.80;99.90;;;;;;5073367;28;20561;-84
2021/03/24 13:10:21;;;;;;;3.53;1.00;;;18.70;99.90;;;;;;5084137;28;20973;-84
2021/03/24 13:12:57;;;;;;;2.95;0.90;;;18.60;99.90;;;;;;5070641;28;20890;-83
2021/03/24 13:15:59;;;;;;;1.15;0.85;;;18.60;99.90;;;;;;5072907;28;20396;-82
2021/03/24 13:18:36;;;;;;;1.40;0.90;;;18.50;99.90;;;;;;5074663;28;20473;-84
2021/03/24 13:21:14;;;;;;;1.27;0.90;;;18.50;99.90;;;;;;5090755;28;20387;-83
2021/03/24 13:23:56;;;;;;;2.08;0.90;;;18.60;99.90;;;;;;5077117;28;20396;-85
2021/03/24 13:26:33;;;;;;;3.88;0.93;;;18.60;99.90;;;;;;5077004;28;20402;-84
2021/03/24 13:29:12;;;;;;;2.63;0.90;;;18.60;99.90;;;;;;5118037;28;20941;-84
2021/03/24 13:32:16;;;;;;;1.27;0.70;;;18.60;99.90;;;;;;5072389;28;20936;-84
2021/03/24 13:35:02;;;;;;;2.08;0.88;;;18.60;99.90;;;;;;5069452;28;20428;-83
2021/03/24 13:37:30;;;;;;;2.40;1.02;;;18.60;99.90;;;;;;5072122;28;20499;-84
2021/03/24 13:40:06;;;;;;;1.58;0.90;;;18.60;99.90;;;;;;5082851;28;20864;-83
2021/03/24 13:42:45;;;;;;;2.78;1.10;;;18.50;99.90;;;;;;5070354;28;20921;-84
2021/03/24 13:45:47;;;;;;;1.10;1.00;;;18.40;99.90;;;;;;5086518;28;20868;-83
2021/03/24 13:48:25;;;;;;;1.90;1.05;;;18.30;99.90;;;;;;5052482;28;20739;-83
2021/03/24 13:50:59;;;;;;;2.83;0.80;;;18.30;99.90;;;;;;5081349;28;20428;-85
2021/03/24 13:53:32;;;;;;;1.65;1.02;;;18.30;99.90;;;;;;5073411;28;20417;-84